createdAt,value
2017-12-19T00:01:53.482Z,96018.56
2017-12-19T00:04:21.539Z,96021.22
2017-12-19T00:06:49.638Z,96012.88
2017-12-19T00:09:17.712Z,96004.05
2017-12-19T00:11:45.839Z,95997.59
2017-12-19T00:14:14.181Z,96001.02
2017-12-19T00:16:42.530Z,95997.80
2017-12-19T00:19:10.900Z,96004.15
2017-12-19T00:21:39.243Z,95999.70
2017-12-19T00:24:07.592Z,96001.52
2017-12-19T00:26:35.967Z,95994.19
2017-12-19T00:29:04.347Z,95994.34
2017-12-19T00:31:32.730Z,95999.84
2017-12-19T00:34:01.091Z,96006.17
2017-12-19T00:36:30.346Z,95998.92
2017-12-19T00:38:58.698Z,96015.17
2017-12-19T00:41:27.175Z,96010.78
2017-12-19T00:43:55.534Z,96019.34
2017-12-19T00:46:23.882Z,96022.16
2017-12-19T00:48:52.230Z,96029.54
2017-12-19T00:51:20.578Z,96040.83
2017-12-19T00:53:48.955Z,96052.79
2017-12-19T00:56:17.312Z,96047.53
2017-12-19T00:58:45.698Z,96056.38
2017-12-19T01:01:14.041Z,96051.16
2017-12-19T01:03:42.400Z,96037.91
2017-12-19T01:06:10.768Z,96042.41
2017-12-19T01:08:39.125Z,96036.55
2017-12-19T01:11:07.530Z,96042.44
2017-12-19T01:13:35.850Z,96047.36
2017-12-19T01:16:04.247Z,96041.05
2017-12-19T01:18:32.598Z,96044.27
2017-12-19T01:21:00.970Z,96048.34
2017-12-19T01:23:29.322Z,96059.59
2017-12-19T01:25:57.669Z,96060.71
2017-12-19T01:28:26.049Z,96067.71
2017-12-19T01:30:54.386Z,96077.66
2017-12-19T01:33:22.872Z,96081.72
2017-12-19T01:35:51.285Z,96086.78
2017-12-19T01:38:19.595Z,96089.38
2017-12-19T01:40:48.002Z,96100.81
2017-12-19T01:43:16.359Z,96109.17
2017-12-19T01:45:44.766Z,96099.30
2017-12-19T01:48:13.122Z,96099.27
2017-12-19T01:50:41.463Z,96109.15
2017-12-19T01:53:09.813Z,96117.94
2017-12-19T01:55:38.176Z,96120.73
2017-12-19T01:58:06.570Z,96132.59
2017-12-19T02:00:34.933Z,96127.73
2017-12-19T02:03:03.290Z,96140.07
2017-12-19T02:05:31.643Z,96146.86
2017-12-19T02:07:59.994Z,96145.39
2017-12-19T02:10:28.376Z,96139.66
2017-12-19T02:12:56.715Z,96135.97
2017-12-19T02:15:25.115Z,96139.52
2017-12-19T02:17:53.465Z,96146.94
2017-12-19T02:20:21.821Z,96145.49
2017-12-19T02:22:50.183Z,96144.91
2017-12-19T02:25:18.543Z,96143.20
2017-12-19T02:27:46.899Z,96139.16
2017-12-19T02:30:15.249Z,96138.03
2017-12-19T02:32:43.630Z,96140.83
2017-12-19T02:35:11.986Z,96131.48
2017-12-19T02:37:41.237Z,96132.30
2017-12-19T02:40:09.598Z,96131.77
2017-12-19T02:42:49.580Z,96138.70
2017-12-19T02:45:17.934Z,96129.92
2017-12-19T02:47:46.291Z,96124.56
2017-12-19T02:50:14.648Z,96125.92
2017-12-19T02:52:43.001Z,96119.44
2017-12-19T02:55:11.423Z,96122.80
2017-12-19T02:57:39.816Z,96128.14
2017-12-19T03:00:08.158Z,96125.94
2017-12-19T03:02:36.511Z,96130.21
2017-12-19T03:05:04.937Z,96121.17
2017-12-19T03:07:33.280Z,96123.27
2017-12-19T03:10:01.618Z,96119.33
2017-12-19T03:12:29.966Z,96113.49
2017-12-19T03:14:58.351Z,96124.81
2017-12-19T03:17:26.703Z,96122.45
2017-12-19T03:19:55.052Z,96127.99
2017-12-19T03:22:23.420Z,96126.11
2017-12-19T03:24:51.765Z,96121.86
2017-12-19T03:27:20.140Z,96123.88
2017-12-19T03:29:48.485Z,96121.95
2017-12-19T03:32:16.843Z,96133.11
2017-12-19T03:34:45.195Z,96134.84
2017-12-19T03:37:13.517Z,96129.24
2017-12-19T03:39:41.863Z,96128.69
2017-12-19T03:42:10.211Z,96127.35
2017-12-19T03:44:38.573Z,96128.84
2017-12-19T03:47:06.901Z,96141.36
2017-12-19T03:49:35.249Z,96141.17
2017-12-19T03:52:03.594Z,96145.08
2017-12-19T03:54:31.944Z,96144.55
2017-12-19T03:57:00.280Z,96147.45
2017-12-19T03:59:28.627Z,96138.14
2017-12-19T04:01:57.006Z,96146.98
2017-12-19T04:04:25.338Z,96146.31
2017-12-19T04:06:53.679Z,96150.55
2017-12-19T04:09:22.064Z,96161.67
2017-12-19T04:11:50.399Z,96163.61
2017-12-19T04:14:18.758Z,96158.81
2017-12-19T04:16:47.117Z,96162.30
2017-12-19T04:19:15.478Z,96163.28
2017-12-19T04:21:43.883Z,96159.97
2017-12-19T04:24:12.233Z,96153.09
2017-12-19T04:26:40.591Z,96154.30
2017-12-19T04:29:08.939Z,96153.44
2017-12-19T04:31:37.287Z,96155.30
2017-12-19T04:34:05.675Z,96162.69
2017-12-19T04:36:34.011Z,96165.84
2017-12-19T04:39:02.339Z,96153.52
2017-12-19T04:41:30.687Z,96161.30
2017-12-19T04:43:59.025Z,96162.90
2017-12-19T04:46:27.372Z,96166.17
2017-12-19T04:48:55.712Z,96163.95
2017-12-19T04:51:25.375Z,96166.89
2017-12-19T04:53:53.728Z,96167.95
2017-12-19T04:56:22.078Z,96177.64
2017-12-19T04:58:50.419Z,96184.37
2017-12-19T05:01:18.748Z,96183.37
2017-12-19T05:03:47.086Z,96191.63
2017-12-19T05:06:15.453Z,96193.44
2017-12-19T05:08:43.789Z,96195.49
2017-12-19T05:11:12.133Z,96197.59
2017-12-19T05:13:40.486Z,96202.69
2017-12-19T05:16:08.866Z,96204.98
2017-12-19T05:18:37.589Z,96210.28
2017-12-19T05:21:05.942Z,96213.33
2017-12-19T05:23:34.282Z,96212.52
2017-12-19T05:26:02.634Z,96213.31
2017-12-19T05:28:31.017Z,96214.83
2017-12-19T05:30:59.351Z,96220.44
2017-12-19T05:33:27.764Z,96232.50
2017-12-19T05:35:56.121Z,96233.84
2017-12-19T05:38:24.461Z,96230.36
2017-12-19T05:40:52.843Z,96237.78
2017-12-19T05:43:21.179Z,96233.42
2017-12-19T05:45:49.544Z,96228.31
2017-12-19T05:48:18.224Z,96233.80
2017-12-19T05:50:46.567Z,96230.06
2017-12-19T05:53:14.943Z,96238.72
2017-12-19T05:55:43.295Z,96237.83
2017-12-19T05:58:11.649Z,96233.64
2017-12-19T06:00:40.070Z,96233.05
2017-12-19T06:03:08.435Z,96239.35
2017-12-19T06:05:36.771Z,96237.25
2017-12-19T06:08:05.137Z,96240.70
2017-12-19T06:10:33.768Z,96241.14
2017-12-19T06:13:02.112Z,96241.05
2017-12-19T06:15:30.481Z,96243.45
2017-12-19T06:17:58.813Z,96251.66
2017-12-19T06:20:27.170Z,96251.91
2017-12-19T06:22:55.553Z,96257.29
2017-12-19T06:25:23.961Z,96253.02
2017-12-19T06:27:52.378Z,96260.34
2017-12-19T06:30:21.665Z,96259.89
2017-12-19T06:32:50.077Z,96267.05
2017-12-19T06:35:18.421Z,96267.30
2017-12-19T06:37:46.785Z,96262.16
2017-12-19T06:40:15.169Z,96258.97
2017-12-19T06:42:43.568Z,96264.70
2017-12-19T06:45:11.940Z,96266.22
2017-12-19T06:47:40.319Z,96267.33
2017-12-19T06:50:08.658Z,96277.09
2017-12-19T06:52:38.279Z,96283.14
2017-12-19T06:55:06.623Z,96284.30
2017-12-19T06:57:35.075Z,96283.27
2017-12-19T07:00:04.331Z,96279.67
2017-12-19T07:02:32.685Z,96286.25
2017-12-19T07:05:01.072Z,96287.34
2017-12-19T07:07:29.420Z,96299.20
2017-12-19T07:09:57.765Z,96291.69
2017-12-19T07:12:26.108Z,96293.29
2017-12-19T07:14:54.505Z,96287.19
2017-12-19T07:17:22.858Z,96288.52
2017-12-19T07:19:51.199Z,96291.45
2017-12-19T07:22:19.547Z,96289.41
2017-12-19T07:24:47.892Z,96283.14
2017-12-19T07:27:16.236Z,96284.23
2017-12-19T07:29:44.576Z,96284.62
2017-12-19T07:32:12.948Z,96288.87
2017-12-19T07:34:41.334Z,96299.28
2017-12-19T07:37:09.682Z,96295.09
2017-12-19T07:39:38.044Z,96301.41
2017-12-19T07:42:06.414Z,96298.81
2017-12-19T07:44:34.790Z,96308.23
2017-12-19T07:47:03.276Z,96304.36
2017-12-19T07:49:31.613Z,96307.20
2017-12-19T07:51:59.962Z,96308.73
2017-12-19T07:54:28.362Z,96309.05
2017-12-19T07:56:56.728Z,96300.45
2017-12-19T07:59:25.096Z,96304.14
2017-12-19T08:01:53.439Z,96314.48
2017-12-19T08:04:21.830Z,96310.48
2017-12-19T08:06:50.166Z,96311.02
2017-12-19T08:09:18.507Z,96309.42
2017-12-19T08:11:46.879Z,96310.95
2017-12-19T08:14:15.222Z,96316.03
2017-12-19T08:16:43.577Z,96327.10
2017-12-19T08:19:11.927Z,96336.98
2017-12-19T08:21:40.278Z,96330.44
2017-12-19T08:24:08.633Z,96331.50
2017-12-19T08:26:37.033Z,96341.44
2017-12-19T08:29:05.405Z,96347.44
2017-12-19T08:31:33.757Z,96348.59
2017-12-19T08:34:02.163Z,96352.93
2017-12-19T08:36:30.472Z,96345.06
2017-12-19T08:38:58.839Z,96339.80
2017-12-19T08:41:27.190Z,96341.55
2017-12-19T08:43:55.545Z,96335.52
2017-12-19T08:46:23.962Z,96337.75
2017-12-19T08:48:52.336Z,96338.18
2017-12-19T08:51:20.678Z,96341.78
2017-12-19T08:53:49.028Z,96341.34
2017-12-19T08:56:17.379Z,96347.38
2017-12-19T08:58:45.735Z,96351.73
2017-12-19T09:01:14.097Z,96356.51
2017-12-19T09:03:42.447Z,96360.92
2017-12-19T09:06:10.799Z,96360.22
2017-12-19T09:08:39.247Z,96371.11
2017-12-19T09:11:07.611Z,96373.13
2017-12-19T09:13:36.015Z,96378.02
2017-12-19T09:16:06.493Z,96376.86
2017-12-19T09:18:35.830Z,96390.67
2017-12-19T09:21:08.654Z,96386.48
2017-12-19T09:26:16.850Z,96391.48
2017-12-19T09:28:45.186Z,96400.48
2017-12-19T09:31:13.540Z,96398.41
2017-12-19T09:33:41.887Z,96400.91
2017-12-19T09:36:10.373Z,96407.08
2017-12-19T09:38:38.776Z,96411.55
2017-12-19T09:41:07.133Z,96409.06
2017-12-19T09:43:35.487Z,96408.23
2017-12-19T09:46:03.827Z,96410.38
2017-12-19T09:48:32.162Z,96409.64
2017-12-19T09:51:00.522Z,96408.41
2017-12-19T09:53:28.851Z,96404.70
2017-12-19T09:55:57.197Z,96402.38
2017-12-19T09:58:27.496Z,96404.98
2017-12-19T10:00:55.866Z,96404.27
2017-12-19T10:03:24.209Z,96401.67
2017-12-19T10:05:52.610Z,96396.59
2017-12-19T10:08:20.950Z,96392.93
2017-12-19T10:10:49.371Z,96392.09
2017-12-19T10:13:17.759Z,96402.83
2017-12-19T10:15:46.093Z,96407.05
2017-12-19T10:18:14.451Z,96406.89
2017-12-19T10:20:42.796Z,96414.77
2017-12-19T10:23:11.171Z,96412.40
2017-12-19T10:25:39.515Z,96413.04
2017-12-19T10:28:07.868Z,96408.58
2017-12-19T10:30:36.225Z,96413.48
2017-12-19T10:33:04.554Z,96415.42
2017-12-19T10:35:32.929Z,96410.01
2017-12-19T10:38:01.290Z,96403.92
2017-12-19T10:40:29.642Z,96403.79
2017-12-19T10:42:58.006Z,96406.30
2017-12-19T10:45:26.492Z,96404.23
2017-12-19T10:47:54.868Z,96408.91
2017-12-19T10:50:23.254Z,96399.98
2017-12-19T10:52:51.610Z,96397.92
2017-12-19T10:55:19.998Z,96398.50
2017-12-19T10:57:48.375Z,96396.63
2017-12-19T11:00:16.711Z,96396.00
2017-12-19T11:02:45.090Z,96399.98
2017-12-19T11:05:13.439Z,96396.89
2017-12-19T11:07:41.778Z,96388.45
2017-12-19T11:10:10.114Z,96390.25
2017-12-19T11:12:40.353Z,96386.12
2017-12-19T11:15:11.676Z,96386.29
2017-12-19T11:17:40.022Z,96382.18
2017-12-19T11:20:08.385Z,96375.22
2017-12-19T11:22:36.720Z,96376.59
2017-12-19T11:25:09.022Z,96375.81
2017-12-19T11:27:38.340Z,96368.09
2017-12-19T11:30:06.696Z,96374.75
2017-12-19T11:32:35.074Z,96377.06
2017-12-19T11:35:03.433Z,96374.95
2017-12-19T11:37:31.771Z,96374.20
2017-12-19T11:40:00.157Z,96367.29
2017-12-19T11:42:28.487Z,96366.97
2017-12-19T11:44:56.830Z,96360.51
2017-12-19T11:47:25.156Z,96356.35
2017-12-19T11:49:53.486Z,96355.20
2017-12-19T11:52:21.851Z,96353.25
2017-12-19T11:54:50.194Z,96346.88
2017-12-19T11:57:18.563Z,96354.45
2017-12-19T11:59:46.958Z,96358.48
2017-12-19T12:02:15.323Z,96357.13
2017-12-19T12:04:43.709Z,96360.25
2017-12-19T12:07:12.070Z,96359.08
2017-12-19T12:09:40.450Z,96360.32
2017-12-19T12:12:08.796Z,96370.13
2017-12-19T12:14:37.129Z,96360.03
2017-12-19T12:17:09.000Z,96360.25
2017-12-19T12:19:37.348Z,96358.91
2017-12-19T12:22:05.679Z,96351.13
2017-12-19T12:24:34.036Z,96352.67
2017-12-19T12:27:02.380Z,96358.55
2017-12-19T12:29:30.896Z,96362.22
2017-12-19T12:31:59.260Z,96358.15
2017-12-19T12:34:27.608Z,96357.24
2017-12-19T12:36:55.972Z,96369.27
2017-12-19T12:39:24.299Z,96374.38
2017-12-19T12:41:52.693Z,96373.62
2017-12-19T12:44:21.026Z,96373.73
2017-12-19T12:46:49.511Z,96373.04
2017-12-19T12:49:17.846Z,96371.22
2017-12-19T12:51:46.265Z,96379.20
2017-12-19T12:54:14.695Z,96377.23
2017-12-19T12:56:43.059Z,96370.58
2017-12-19T12:59:11.450Z,96370.02
2017-12-19T13:01:39.786Z,96369.32
2017-12-19T13:04:10.039Z,96362.81
2017-12-19T13:06:38.415Z,96367.41
2017-12-19T13:09:06.765Z,96363.75
2017-12-19T13:11:35.324Z,96354.74
2017-12-19T13:14:05.577Z,96355.18
2017-12-19T13:16:34.764Z,96353.95
2017-12-19T13:19:03.098Z,96358.65
2017-12-19T13:21:31.452Z,96351.27
2017-12-19T13:23:59.796Z,96350.80
2017-12-19T13:26:28.138Z,96348.95
2017-12-19T13:28:56.494Z,96345.19
2017-12-19T13:31:24.840Z,96343.98
2017-12-19T13:33:53.319Z,96343.45
2017-12-19T13:36:21.670Z,96340.25
2017-12-19T13:38:50.930Z,96341.19
2017-12-19T13:41:19.264Z,96340.80
2017-12-19T13:43:47.626Z,96339.18
2017-12-19T13:46:25.770Z,96341.70
2017-12-19T13:48:54.129Z,96340.98
2017-12-19T13:51:23.685Z,96341.56
2017-12-19T13:53:52.046Z,96338.61
2017-12-19T13:56:20.399Z,96334.83
2017-12-19T13:58:48.741Z,96337.27
2017-12-19T14:01:17.070Z,96340.41
2017-12-19T14:03:45.446Z,96333.91
2017-12-19T14:06:13.791Z,96334.53
2017-12-19T14:08:42.141Z,96333.98
2017-12-19T14:11:11.390Z,96329.95
2017-12-19T14:13:39.732Z,96327.73
2017-12-19T14:16:08.094Z,96319.84
2017-12-19T14:18:36.442Z,96321.02
2017-12-19T14:21:04.784Z,96320.59
2017-12-19T14:23:33.152Z,96320.36
2017-12-19T14:26:01.475Z,96320.17
2017-12-19T14:28:29.864Z,96315.97
2017-12-19T14:30:58.182Z,96317.85
2017-12-19T14:33:26.532Z,96329.80
2017-12-19T14:35:54.888Z,96322.42
2017-12-19T14:38:28.136Z,96323.70
2017-12-19T14:40:57.528Z,96324.77
2017-12-19T14:43:25.887Z,96333.03
2017-12-19T14:45:54.223Z,96321.05
2017-12-19T14:48:22.561Z,96325.41
2017-12-19T14:50:50.915Z,96324.02
2017-12-19T14:53:19.282Z,96321.77
2017-12-19T14:55:47.650Z,96318.36
2017-12-19T14:58:15.984Z,96316.54
2017-12-19T15:00:47.258Z,96314.28
2017-12-19T15:03:15.611Z,96316.98
2017-12-19T15:05:43.966Z,96314.58
2017-12-19T15:08:12.326Z,96316.88
2017-12-19T15:10:40.707Z,96323.70
2017-12-19T15:13:10.966Z,96317.31
2017-12-19T15:15:39.377Z,96323.75
2017-12-19T15:18:07.706Z,96320.27
2017-12-19T15:20:36.967Z,96316.89
2017-12-19T15:23:05.329Z,96321.86
2017-12-19T15:25:33.878Z,96324.47
2017-12-19T15:28:02.361Z,96320.78
2017-12-19T15:30:30.908Z,96328.29
2017-12-19T15:32:59.303Z,96342.34
2017-12-19T15:35:27.664Z,96332.53
2017-12-19T15:37:56.004Z,96344.60
2017-12-19T15:40:24.396Z,96335.75
2017-12-19T15:42:52.737Z,96336.19
2017-12-19T15:45:21.082Z,96339.45
2017-12-19T15:47:49.445Z,96337.73
2017-12-19T15:50:17.809Z,96334.96
2017-12-19T15:52:46.194Z,96332.56
2017-12-19T15:55:14.607Z,96339.17
2017-12-19T15:57:42.968Z,96337.86
2017-12-19T16:00:11.330Z,96338.19
2017-12-19T16:02:39.685Z,96346.68
2017-12-19T16:05:08.051Z,96336.16
2017-12-19T16:07:36.437Z,96338.64
2017-12-19T16:10:04.805Z,96335.84
2017-12-19T16:12:33.151Z,96341.80
2017-12-19T16:15:01.538Z,96346.77
2017-12-19T16:17:29.927Z,96334.17
2017-12-19T16:19:58.274Z,96345.16
2017-12-19T16:22:26.660Z,96343.22
2017-12-19T16:24:55.003Z,96343.97
2017-12-19T16:27:23.382Z,96345.85
2017-12-19T16:29:51.810Z,96347.09
2017-12-19T16:32:20.158Z,96350.57
2017-12-19T16:34:48.546Z,96343.08
2017-12-19T16:37:16.947Z,96349.83
2017-12-19T16:39:45.379Z,96353.52
2017-12-19T16:42:13.747Z,96358.02
2017-12-19T16:44:42.332Z,96353.95
2017-12-19T16:47:10.719Z,96355.48
2017-12-19T16:49:39.101Z,96352.19
2017-12-19T16:52:07.457Z,96355.16
2017-12-19T16:54:36.177Z,96350.73
2017-12-19T16:57:04.561Z,96351.09
2017-12-19T16:59:32.927Z,96342.58
2017-12-19T17:02:01.342Z,96336.91
2017-12-19T17:04:29.705Z,96337.91
2017-12-19T17:06:58.060Z,96348.09
2017-12-19T17:09:26.434Z,96347.84
2017-12-19T17:11:54.810Z,96361.55
2017-12-19T17:14:23.229Z,96357.96
2017-12-19T17:16:51.688Z,96357.77
2017-12-19T17:19:25.751Z,96361.78
2017-12-19T17:21:54.293Z,96351.55
2017-12-19T17:24:22.991Z,96353.16
2017-12-19T17:26:51.341Z,96353.28
2017-12-19T17:29:20.146Z,96345.75
2017-12-19T17:31:48.539Z,96340.30
2017-12-19T17:34:22.417Z,96332.66
2017-12-19T17:36:50.809Z,96334.31
2017-12-19T17:39:19.299Z,96339.33
2017-12-19T17:41:47.667Z,96343.64
2017-12-19T17:44:16.082Z,96344.52
2017-12-19T17:46:44.958Z,96343.63
2017-12-19T17:49:13.446Z,96348.23
2017-12-19T17:51:41.890Z,96346.70
2017-12-19T17:54:10.315Z,96341.72
2017-12-19T17:56:38.704Z,96354.32
2017-12-19T17:59:07.053Z,96354.13
2017-12-19T18:01:35.612Z,96352.17
2017-12-19T18:04:04.162Z,96349.20
2017-12-19T18:06:32.578Z,96355.86
2017-12-19T18:09:01.025Z,96354.98
2017-12-19T18:11:29.439Z,96356.87
2017-12-19T18:13:57.820Z,96347.70
2017-12-19T18:16:26.174Z,96354.57
2017-12-19T18:18:54.541Z,96356.59
2017-12-19T18:21:23.046Z,96358.56
2017-12-19T18:23:51.676Z,96357.56
2017-12-19T18:26:20.044Z,96354.95
2017-12-19T18:28:48.455Z,96360.11
2017-12-19T18:31:16.823Z,96363.20
2017-12-19T18:33:45.176Z,96359.31
2017-12-19T18:36:23.210Z,96358.80
2017-12-19T18:38:51.657Z,96348.06
2017-12-19T18:41:20.146Z,96330.91
2017-12-19T18:43:48.537Z,96329.06
2017-12-19T18:46:17.036Z,96321.74
2017-12-19T18:48:46.009Z,96319.70
2017-12-19T18:51:16.286Z,96324.19
2017-12-19T18:53:45.245Z,96323.18
2017-12-19T18:56:13.639Z,96311.81
2017-12-19T18:58:42.025Z,96313.92
2017-12-19T19:01:10.388Z,96319.30
2017-12-19T19:03:39.125Z,96324.91
2017-12-19T19:06:07.828Z,96320.30
2017-12-19T19:08:38.185Z,96325.22
2017-12-19T19:11:06.802Z,96322.20
2017-12-19T19:13:35.373Z,96325.63
2017-12-19T19:16:03.879Z,96332.92
2017-12-19T19:18:32.586Z,96329.83
2017-12-19T19:21:01.794Z,96331.04
2017-12-19T19:23:30.797Z,96334.19
2017-12-19T19:26:00.824Z,96339.14
2017-12-19T19:28:29.247Z,96331.66
2017-12-19T19:30:57.597Z,96338.18
2017-12-19T19:33:26.069Z,96341.75
2017-12-19T19:35:54.531Z,96338.80
2017-12-19T19:38:24.286Z,96331.20
2017-12-19T19:40:52.653Z,96330.34
2017-12-19T19:43:21.024Z,96328.20
2017-12-19T19:45:49.712Z,96328.60
2017-12-19T19:48:18.070Z,96334.77
2017-12-19T19:50:46.468Z,96331.61
2017-12-19T19:53:14.843Z,96333.25
2017-12-19T19:55:43.260Z,96330.15
2017-12-19T19:58:11.733Z,96323.00
2017-12-19T20:00:40.082Z,96335.72
2017-12-19T20:03:09.248Z,96323.09
2017-12-19T20:05:38.026Z,96326.70
2017-12-19T20:08:06.562Z,96328.31
2017-12-19T20:10:35.064Z,96330.53
2017-12-19T20:13:03.430Z,96341.09
2017-12-19T20:15:31.791Z,96343.11
2017-12-19T20:18:00.247Z,96336.94
2017-12-19T20:20:28.600Z,96337.41
2017-12-19T20:22:57.020Z,96343.63
2017-12-19T20:25:25.371Z,96353.38
2017-12-19T20:27:53.735Z,96360.98
2017-12-19T20:30:22.142Z,96351.91
2017-12-19T20:32:50.578Z,96345.67
2017-12-19T20:35:18.955Z,96346.47
2017-12-19T20:37:47.316Z,96345.09
2017-12-19T20:40:15.722Z,96341.23
2017-12-19T20:42:44.088Z,96342.85
2017-12-19T20:45:12.610Z,96348.30
2017-12-19T20:47:41.016Z,96347.58
2017-12-19T20:50:09.381Z,96343.93
2017-12-19T20:52:37.758Z,96339.86
2017-12-19T20:55:07.007Z,96334.94
2017-12-19T20:57:35.784Z,96327.20
2017-12-19T21:00:04.431Z,96326.54
2017-12-19T21:02:33.852Z,96331.27
2017-12-19T21:05:02.219Z,96320.58
2017-12-19T21:07:30.631Z,96322.56
2017-12-19T21:09:59.297Z,96316.51
2017-12-19T21:12:27.710Z,96311.80
2017-12-19T21:14:56.953Z,96301.22
2017-12-19T21:17:25.407Z,96296.38
2017-12-19T21:19:53.782Z,96292.66
2017-12-19T21:22:22.122Z,96301.96
2017-12-19T21:24:50.542Z,96305.35
2017-12-19T21:27:18.831Z,96297.00
2017-12-19T21:29:47.187Z,96300.60
2017-12-19T21:32:15.523Z,96284.39
2017-12-19T21:34:43.867Z,96277.98
2017-12-19T21:37:12.250Z,96272.06
2017-12-19T21:39:40.595Z,96276.50
2017-12-19T21:42:09.225Z,96278.96
2017-12-19T21:44:37.721Z,96285.62
2017-12-19T21:47:06.768Z,96296.97
2017-12-19T21:49:35.212Z,96296.19
2017-12-19T21:52:03.779Z,96290.35
2017-12-19T21:54:32.563Z,96293.60
2017-12-19T21:57:01.213Z,96294.83
2017-12-19T21:59:29.699Z,96299.02
2017-12-19T22:02:05.192Z,96302.00
2017-12-19T22:04:33.568Z,96312.58
2017-12-19T22:07:01.932Z,96316.45
2017-12-19T22:09:30.346Z,96318.68
2017-12-19T22:11:58.686Z,96318.72
2017-12-19T22:14:27.053Z,96312.94
2017-12-19T22:16:55.427Z,96317.73
2017-12-19T22:19:23.775Z,96320.84
2017-12-19T22:21:52.146Z,96315.55
2017-12-19T22:24:20.496Z,96310.09
2017-12-19T22:26:48.878Z,96301.78
2017-12-19T22:29:17.215Z,96290.62
2017-12-19T22:31:45.837Z,96290.80
2017-12-19T22:34:14.182Z,96305.27
2017-12-19T22:36:42.540Z,96313.45
2017-12-19T22:39:10.879Z,96312.36
2017-12-19T22:41:39.238Z,96318.44
2017-12-19T22:44:07.580Z,96318.70
2017-12-19T22:46:35.947Z,96325.10
2017-12-19T22:49:04.315Z,96318.54
2017-12-19T22:51:32.652Z,96327.82
2017-12-19T22:54:00.996Z,96323.20
2017-12-19T22:56:29.340Z,96318.98
2017-12-19T22:58:57.698Z,96315.98
2017-12-19T23:01:26.087Z,96314.80
2017-12-19T23:03:54.524Z,96314.30
2017-12-19T23:06:22.866Z,96313.27
2017-12-19T23:08:51.209Z,96319.74
2017-12-19T23:11:19.558Z,96315.75
2017-12-19T23:13:47.935Z,96312.22
2017-12-19T23:16:16.275Z,96317.28
2017-12-19T23:18:44.619Z,96312.41
2017-12-19T23:21:12.970Z,96311.61
2017-12-19T23:23:41.307Z,96315.48
2017-12-19T23:26:09.690Z,96309.13
2017-12-19T23:28:38.051Z,96310.73
2017-12-19T23:31:06.393Z,96326.49
2017-12-19T23:33:34.753Z,96316.80
2017-12-19T23:36:03.084Z,96316.89
2017-12-19T23:38:31.448Z,96327.89
2017-12-19T23:40:59.802Z,96317.48
2017-12-19T23:43:28.189Z,96314.48
2017-12-19T23:45:56.551Z,96317.56
2017-12-19T23:48:24.898Z,96316.00
2017-12-19T23:50:53.367Z,96314.59
2017-12-19T23:53:21.723Z,96315.16
2017-12-19T23:55:50.089Z,96318.67
2017-12-19T23:58:18.465Z,96313.91
